createdAt,value
2022-08-26T00:00:21.376Z,2.65
2022-08-26T00:02:50.796Z,2.30
2022-08-26T00:05:20.215Z,2.50
2022-08-26T00:07:49.595Z,2.50
2022-08-26T00:10:18.914Z,2.67
2022-08-26T00:12:50.685Z,2.95
2022-08-26T00:15:24.216Z,2.60
2022-08-26T00:17:52.627Z,2.60
2022-08-26T00:20:28.187Z,2.38
2022-08-26T00:22:55.543Z,3.15
2022-08-26T00:25:23.466Z,2.72
2022-08-26T00:27:50.733Z,2.90
2022-08-26T00:30:27.741Z,2.53
2022-08-26T00:32:55.937Z,2.88
2022-08-26T00:35:24.166Z,2.85
2022-08-26T00:37:54.031Z,2.97
2022-08-26T00:40:29.197Z,2.57
2022-08-26T00:42:58.770Z,2.53
2022-08-26T00:45:26.081Z,2.63
2022-08-26T00:48:06.473Z,2.40
2022-08-26T00:50:42.680Z,2.50
2022-08-26T00:53:32.768Z,2.63
2022-08-26T00:56:13.994Z,2.90
2022-08-26T01:01:11.511Z,2.47
2022-08-26T01:03:39.172Z,2.60
2022-08-26T01:06:12.556Z,2.70
2022-08-26T01:08:40.826Z,2.70
2022-08-26T01:11:11.830Z,2.30
2022-08-26T01:13:41.686Z,2.70
2022-08-26T01:16:14.656Z,2.83
2022-08-26T01:18:46.781Z,2.42
2022-08-26T01:21:40.681Z,2.45
2022-08-26T01:24:11.944Z,2.10
2022-08-26T01:26:43.286Z,2.38
2022-08-26T01:29:17.076Z,2.55
2022-08-26T01:31:51.845Z,2.22
2022-08-26T01:34:28.772Z,2.65
2022-08-26T01:37:07.922Z,2.58
2022-08-26T01:39:41.489Z,2.70
2022-08-26T01:42:14.077Z,2.50
2022-08-26T01:45:05.746Z,2.45
2022-08-26T01:47:35.666Z,2.60
2022-08-26T01:50:12.010Z,2.35
2022-08-26T01:52:43.605Z,2.70
2022-08-26T01:55:15.000Z,2.63
2022-08-26T01:58:05.515Z,2.63
2022-08-26T02:00:35.099Z,2.70
2022-08-26T02:03:22.133Z,2.85
2022-08-26T02:06:05.078Z,2.78
2022-08-26T02:08:47.086Z,2.70
2022-08-26T02:11:14.752Z,2.63
2022-08-26T02:14:04.224Z,2.15
2022-08-26T02:16:41.168Z,2.60
2022-08-26T02:19:27.752Z,2.50
2022-08-26T02:22:01.773Z,2.45
2022-08-26T02:24:47.140Z,2.20
2022-08-26T02:27:19.397Z,2.65
2022-08-26T02:29:54.024Z,2.63
2022-08-26T02:32:21.199Z,2.47
2022-08-26T02:34:50.411Z,2.20
2022-08-26T02:37:17.868Z,2.80
2022-08-26T02:39:47.145Z,2.58
2022-08-26T02:42:14.983Z,2.65
2022-08-26T02:44:41.832Z,2.50
2022-08-26T02:47:13.856Z,2.72
2022-08-26T02:49:44.362Z,2.67
2022-08-26T02:52:14.676Z,2.55
2022-08-26T02:54:41.636Z,2.60
2022-08-26T02:57:09.998Z,2.45
2022-08-26T02:59:39.951Z,2.45
2022-08-26T03:02:07.634Z,2.75
2022-08-26T03:04:34.626Z,3.00
2022-08-26T03:07:01.593Z,2.50
2022-08-26T03:09:33.031Z,2.38
2022-08-26T03:14:30.079Z,2.20
2022-08-26T03:16:56.998Z,2.35
2022-08-26T03:19:27.317Z,2.63
2022-08-26T03:21:57.850Z,2.70
2022-08-26T03:24:26.368Z,2.35
2022-08-26T03:26:53.365Z,2.10
2022-08-26T03:29:40.617Z,2.30
2022-08-26T03:32:10.646Z,2.25
2022-08-26T03:34:37.731Z,2.55
2022-08-26T03:37:08.127Z,2.83
2022-08-26T03:39:40.439Z,2.65
2022-08-26T03:42:07.666Z,2.63
2022-08-26T03:44:37.085Z,2.63
2022-08-26T03:47:09.043Z,2.83
2022-08-26T03:49:41.806Z,3.05
2022-08-26T03:52:10.422Z,2.67
2022-08-26T03:54:38.350Z,2.83
2022-08-26T03:57:05.338Z,2.90
2022-08-26T03:59:35.038Z,2.65
2022-08-26T04:02:02.052Z,2.72
2022-08-26T04:04:31.661Z,2.50
2022-08-26T04:07:01.437Z,2.65
2022-08-26T04:09:28.359Z,2.55
2022-08-26T04:11:58.639Z,2.45
2022-08-26T04:14:28.141Z,2.88
2022-08-26T04:17:00.556Z,2.45
2022-08-26T04:19:27.565Z,2.50
2022-08-26T04:21:57.064Z,2.88
2022-08-26T04:24:26.232Z,2.80
2022-08-26T04:26:56.370Z,2.70
2022-08-26T04:29:26.278Z,2.67
2022-08-26T04:31:55.898Z,2.63
2022-08-26T04:34:28.969Z,3.03
2022-08-26T04:36:57.868Z,2.90
2022-08-26T04:39:28.025Z,2.95
2022-08-26T04:41:55.656Z,2.50
2022-08-26T04:44:28.208Z,2.47
2022-08-26T04:46:56.154Z,2.45
2022-08-26T04:49:23.321Z,2.60
2022-08-26T04:51:55.907Z,2.45
2022-08-26T04:54:23.111Z,2.63
2022-08-26T04:56:52.109Z,2.65
2022-08-26T04:59:19.230Z,2.60
2022-08-26T05:01:50.738Z,2.40
2022-08-26T05:04:20.246Z,2.70
2022-08-26T05:06:54.838Z,3.10
2022-08-26T05:09:27.264Z,2.45
2022-08-26T05:11:54.483Z,2.85
2022-08-26T05:14:24.462Z,2.78
2022-08-26T05:16:51.974Z,3.10
2022-08-26T05:19:19.600Z,2.50
2022-08-26T05:21:48.630Z,2.78
2022-08-26T05:24:17.438Z,2.38
2022-08-26T05:26:48.112Z,2.78
2022-08-26T05:29:18.540Z,3.97
2022-08-26T05:31:50.205Z,2.67
2022-08-26T05:34:17.636Z,2.40
2022-08-26T05:36:47.594Z,2.72
2022-08-26T05:39:17.363Z,2.70
2022-08-26T05:41:44.949Z,2.65
2022-08-26T05:44:15.455Z,2.70
2022-08-26T05:46:44.718Z,2.58
2022-08-26T05:49:15.915Z,2.40
2022-08-26T05:51:48.136Z,3.15
2022-08-26T05:54:22.267Z,2.85
2022-08-26T05:56:53.630Z,3.00
2022-08-26T05:59:24.162Z,3.72
2022-08-26T06:01:53.133Z,3.30
2022-08-26T06:04:20.182Z,3.05
2022-08-26T06:06:47.535Z,3.30
2022-08-26T06:09:14.958Z,2.90
2022-08-26T06:11:45.475Z,3.03
2022-08-26T06:14:15.437Z,2.80
2022-08-26T06:16:44.450Z,2.75
2022-08-26T06:19:15.092Z,2.72
2022-08-26T06:21:46.993Z,3.00
2022-08-26T06:24:39.030Z,2.38
2022-08-26T06:27:09.895Z,2.78
2022-08-26T06:32:08.818Z,2.45
2022-08-26T06:34:40.352Z,2.63
2022-08-26T06:39:40.138Z,2.60
2022-08-26T06:42:08.286Z,2.70
2022-08-26T06:44:37.425Z,2.88
2022-08-26T06:47:12.506Z,3.63
2022-08-26T06:52:11.239Z,3.05
2022-08-26T06:54:41.537Z,3.80
2022-08-26T06:57:14.345Z,3.85
2022-08-26T06:59:43.704Z,4.07
2022-08-26T07:02:13.470Z,3.63
2022-08-26T07:04:41.313Z,3.38
2022-08-26T07:07:09.746Z,4.22
2022-08-26T07:09:37.419Z,3.22
2022-08-26T07:12:06.808Z,3.53
2022-08-26T07:14:34.947Z,4.10
2022-08-26T07:17:07.336Z,4.25
2022-08-26T07:19:37.114Z,4.45
2022-08-26T07:22:06.271Z,4.38
2022-08-26T07:24:42.468Z,4.15
2022-08-26T07:27:16.515Z,4.45
2022-08-26T07:29:45.008Z,3.90
2022-08-26T07:32:17.106Z,4.10
2022-08-26T07:34:47.481Z,3.78
2022-08-26T07:37:14.969Z,4.18
2022-08-26T07:39:47.723Z,3.60
2022-08-26T07:42:18.976Z,3.53
2022-08-26T07:44:46.834Z,3.22
2022-08-26T07:47:25.898Z,4.13
2022-08-26T07:49:56.159Z,3.88
2022-08-26T07:52:26.913Z,3.33
2022-08-26T07:57:28.838Z,2.38
2022-08-26T07:59:56.906Z,2.80
2022-08-26T08:02:31.322Z,2.63
2022-08-26T08:04:58.524Z,2.55
2022-08-26T08:07:44.249Z,2.13
2022-08-26T08:10:17.824Z,2.10
2022-08-26T08:12:48.087Z,2.47
2022-08-26T08:15:21.072Z,2.50
2022-08-26T08:17:50.469Z,2.55
2022-08-26T08:20:19.272Z,2.20
2022-08-26T08:22:48.377Z,2.10
2022-08-26T08:25:15.887Z,2.50
2022-08-26T08:27:45.211Z,2.90
2022-08-26T08:30:22.949Z,3.30
2022-08-26T08:32:50.940Z,2.72
2022-08-26T08:35:22.399Z,2.78
2022-08-26T08:37:54.718Z,2.70
2022-08-26T08:40:25.270Z,2.72
2022-08-26T08:43:06.622Z,3.08
2022-08-26T08:45:43.571Z,2.38
2022-08-26T08:48:27.847Z,2.20
2022-08-26T08:51:06.601Z,2.53
2022-08-26T08:53:37.692Z,2.33
2022-08-26T08:56:07.332Z,2.28
2022-08-26T08:59:12.375Z,2.30
2022-08-26T09:01:55.553Z,1.98
2022-08-26T09:05:26.140Z,2.22
2022-08-26T09:08:02.146Z,1.90
2022-08-26T09:10:48.451Z,2.17
2022-08-26T09:13:25.339Z,2.00
2022-08-26T09:16:13.750Z,2.20
2022-08-26T09:19:05.127Z,2.05
2022-08-26T09:21:32.880Z,2.33
2022-08-26T09:24:00.387Z,2.20
2022-08-26T09:26:44.348Z,1.60
2022-08-26T09:29:23.177Z,2.42
2022-08-26T09:31:52.435Z,2.22
2022-08-26T09:34:23.678Z,2.10
2022-08-26T09:36:55.770Z,2.03
2022-08-26T09:39:30.240Z,2.15
2022-08-26T09:42:17.079Z,2.22
2022-08-26T09:44:58.309Z,2.17
2022-08-26T09:47:39.242Z,2.17
2022-08-26T09:50:36.143Z,2.40
2022-08-26T09:53:12.903Z,2.20
2022-08-26T09:55:47.946Z,2.15
2022-08-26T09:58:35.450Z,2.25
2022-08-26T10:01:19.499Z,2.03
2022-08-26T10:03:47.110Z,1.90
2022-08-26T10:06:21.811Z,2.17
2022-08-26T10:08:56.132Z,1.83
2022-08-26T10:11:32.076Z,1.90
2022-08-26T10:14:11.229Z,2.15
2022-08-26T10:16:48.517Z,1.90
2022-08-26T10:19:41.836Z,1.67
2022-08-26T10:23:14.888Z,1.83
2022-08-26T10:25:56.998Z,1.90
2022-08-26T10:28:56.357Z,1.85
2022-08-26T10:31:45.075Z,1.85
2022-08-26T10:34:19.530Z,1.98
2022-08-26T10:37:15.909Z,2.03
2022-08-26T10:39:59.254Z,1.95
2022-08-26T10:42:41.847Z,1.90
2022-08-26T10:45:15.659Z,1.80
2022-08-26T10:48:00.281Z,1.83
2022-08-26T10:50:33.732Z,1.85
2022-08-26T10:53:25.205Z,1.90
2022-08-26T10:56:19.411Z,2.25
2022-08-26T10:59:22.754Z,2.00
2022-08-26T11:02:25.012Z,1.73
2022-08-26T11:05:04.451Z,2.00
2022-08-26T11:07:36.743Z,1.90
2022-08-26T11:10:21.511Z,1.98
2022-08-26T11:13:16.386Z,1.85
2022-08-26T11:15:45.972Z,2.10
2022-08-26T11:18:39.471Z,2.10
2022-08-26T11:21:41.432Z,1.98
2022-08-26T11:24:42.778Z,2.10
2022-08-26T11:27:37.580Z,2.33
2022-08-26T11:30:15.710Z,2.45
2022-08-26T11:32:50.689Z,2.38
2022-08-26T11:35:20.746Z,2.30
2022-08-26T11:37:48.333Z,2.45
2022-08-26T11:40:22.672Z,2.60
2022-08-26T11:43:00.533Z,4.15
2022-08-26T11:45:41.591Z,2.70
2022-08-26T11:48:20.965Z,2.45
2022-08-26T11:51:05.825Z,2.30
2022-08-26T11:53:37.692Z,2.40
2022-08-26T11:56:16.839Z,2.75
2022-08-26T11:58:50.175Z,2.58
2022-08-26T12:01:36.308Z,2.35
2022-08-26T12:04:07.020Z,2.83
2022-08-26T12:09:28.536Z,2.13
2022-08-26T12:12:26.726Z,2.05
2022-08-26T12:15:13.928Z,2.50
2022-08-26T12:17:42.579Z,1.92
2022-08-26T12:20:46.269Z,2.03
2022-08-26T12:23:36.385Z,1.90
2022-08-26T12:26:17.863Z,2.20
2022-08-26T12:31:25.973Z,1.92
2022-08-26T12:33:56.581Z,2.03
2022-08-26T12:36:46.052Z,2.30
2022-08-26T12:39:27.085Z,2.28
2022-08-26T12:42:03.214Z,2.13
2022-08-26T12:44:38.058Z,1.95
2022-08-26T12:47:42.167Z,2.25
2022-08-26T12:50:52.043Z,1.90
2022-08-26T12:53:29.138Z,1.70
2022-08-26T12:56:05.756Z,1.85
2022-08-26T12:58:39.659Z,1.75
2022-08-26T13:01:06.888Z,1.63
2022-08-26T13:03:43.740Z,1.75
2022-08-26T13:06:25.783Z,1.98
2022-08-26T13:09:09.797Z,1.95
2022-08-26T13:11:39.398Z,2.05
2022-08-26T13:14:23.903Z,1.85
2022-08-26T13:16:52.644Z,1.98
2022-08-26T13:19:24.158Z,2.13
2022-08-26T13:21:54.787Z,2.50
2022-08-26T13:24:35.894Z,2.83
2022-08-26T13:27:07.300Z,2.30
2022-08-26T13:29:34.408Z,2.95
2022-08-26T13:32:05.263Z,2.42
2022-08-26T13:34:32.538Z,2.30
2022-08-26T13:36:59.912Z,2.78
2022-08-26T13:39:29.398Z,2.60
2022-08-26T13:42:00.177Z,2.78
2022-08-26T13:44:29.617Z,2.55
2022-08-26T13:46:56.525Z,2.25
2022-08-26T13:49:23.463Z,2.65
2022-08-26T13:51:50.420Z,2.53
2022-08-26T13:54:20.096Z,2.38
2022-08-26T13:56:47.244Z,2.42
2022-08-26T13:59:16.568Z,2.53
2022-08-26T14:01:43.582Z,2.22
2022-08-26T14:04:13.141Z,2.33
2022-08-26T14:06:40.062Z,2.65
2022-08-26T14:09:07.009Z,2.75
2022-08-26T14:11:49.013Z,2.40
2022-08-26T14:14:21.351Z,2.33
2022-08-26T14:16:58.919Z,2.58
2022-08-26T14:19:30.044Z,2.20
2022-08-26T14:21:57.593Z,2.80
2022-08-26T14:24:27.415Z,2.50
2022-08-26T14:26:54.368Z,2.72
2022-08-26T14:29:21.259Z,2.25
2022-08-26T14:31:48.481Z,2.47
2022-08-26T14:34:18.246Z,2.15
2022-08-26T14:36:45.145Z,1.98
2022-08-26T14:39:13.566Z,2.10
2022-08-26T14:41:54.457Z,2.35
2022-08-26T14:44:28.518Z,2.60
2022-08-26T14:46:55.973Z,2.58
2022-08-26T14:49:24.603Z,2.15
2022-08-26T14:51:51.579Z,2.40
2022-08-26T14:54:20.431Z,2.45
2022-08-26T14:56:55.683Z,2.60
2022-08-26T14:59:35.086Z,2.45
2022-08-26T15:02:06.031Z,2.50
2022-08-26T15:07:03.471Z,2.30
2022-08-26T15:09:37.314Z,2.50
2022-08-26T15:12:07.278Z,2.83
2022-08-26T15:14:37.391Z,2.47
2022-08-26T15:17:09.024Z,2.60
2022-08-26T15:19:38.949Z,2.80
2022-08-26T15:22:05.881Z,2.75
2022-08-26T15:24:32.902Z,3.45
2022-08-26T15:27:04.335Z,3.03
2022-08-26T15:29:31.435Z,2.83
2022-08-26T15:32:05.967Z,3.10
2022-08-26T15:34:33.261Z,3.13
2022-08-26T15:37:00.235Z,3.20
2022-08-26T15:39:31.780Z,3.00
2022-08-26T15:41:59.753Z,2.95
2022-08-26T15:44:27.913Z,2.95
2022-08-26T15:46:58.800Z,3.05
2022-08-26T15:51:57.681Z,2.65
2022-08-26T15:54:24.753Z,3.10
2022-08-26T15:56:53.044Z,2.90
2022-08-26T15:59:22.996Z,3.63
2022-08-26T16:01:53.787Z,3.00
2022-08-26T16:04:23.676Z,3.07
2022-08-26T16:06:51.987Z,2.97
2022-08-26T16:09:27.757Z,3.30
2022-08-26T16:11:55.843Z,3.20
2022-08-26T16:14:23.843Z,3.13
2022-08-26T16:16:53.520Z,3.47
2022-08-26T16:19:23.809Z,3.50
2022-08-26T16:21:51.461Z,2.87
2022-08-26T16:24:24.794Z,3.50
2022-08-26T16:26:54.520Z,2.95
2022-08-26T16:29:21.509Z,3.47
2022-08-26T16:31:54.572Z,3.03
2022-08-26T16:34:24.552Z,3.30
2022-08-26T16:36:51.823Z,3.28
2022-08-26T16:39:24.004Z,3.13
2022-08-26T16:41:53.425Z,3.25
2022-08-26T16:44:21.944Z,3.55
2022-08-26T16:46:52.925Z,3.20
2022-08-26T16:49:25.533Z,3.85
2022-08-26T16:51:52.474Z,3.45
2022-08-26T16:54:19.418Z,3.25
2022-08-26T16:56:48.741Z,3.00
2022-08-26T16:59:15.703Z,2.70
2022-08-26T17:01:45.675Z,3.13
2022-08-26T17:04:12.706Z,3.45
2022-08-26T17:06:40.141Z,2.97
2022-08-26T17:09:08.039Z,2.60
2022-08-26T17:11:37.203Z,2.70
2022-08-26T17:14:05.810Z,3.08
2022-08-26T17:16:33.042Z,2.88
2022-08-26T17:19:05.608Z,3.05
2022-08-26T17:21:36.128Z,2.85
2022-08-26T17:24:05.154Z,3.20
2022-08-26T17:26:32.368Z,3.10
2022-08-26T17:29:00.101Z,3.08
2022-08-26T17:31:29.289Z,3.22
2022-08-26T17:33:56.629Z,3.17
2022-08-26T17:36:27.493Z,2.92
2022-08-26T17:38:58.039Z,3.45
2022-08-26T17:41:30.054Z,3.17
2022-08-26T17:43:57.142Z,3.30
2022-08-26T17:46:24.440Z,3.45
2022-08-26T17:48:54.217Z,3.72
2022-08-26T17:51:22.911Z,3.70
2022-08-26T17:53:53.384Z,3.78
2022-08-26T17:56:25.465Z,3.33
2022-08-26T17:58:56.505Z,3.00
2022-08-26T18:01:26.673Z,3.28
2022-08-26T18:04:00.391Z,3.53
2022-08-26T18:06:30.334Z,3.50
2022-08-26T18:09:00.315Z,3.65
2022-08-26T18:11:27.974Z,3.92
2022-08-26T18:13:57.421Z,3.55
2022-08-26T18:16:28.039Z,3.15
2022-08-26T18:18:58.409Z,3.83
2022-08-26T18:21:30.979Z,3.93
2022-08-26T18:23:57.941Z,3.53
2022-08-26T18:26:37.117Z,4.05
2022-08-26T18:29:05.279Z,4.28
2022-08-26T18:31:33.199Z,3.90
2022-08-26T18:34:03.855Z,3.92
2022-08-26T18:36:36.633Z,4.82
2022-08-26T18:39:06.392Z,5.03
2022-08-26T18:41:43.061Z,4.72
2022-08-26T18:44:13.585Z,4.55
2022-08-26T18:46:43.894Z,4.93
2022-08-26T18:49:15.894Z,4.80
2022-08-26T18:51:46.879Z,5.07
2022-08-26T18:54:14.635Z,4.40
2022-08-26T18:56:45.021Z,5.35
2022-08-26T18:59:12.696Z,5.27
2022-08-26T19:01:50.518Z,4.85
2022-08-26T19:04:20.036Z,4.60
2022-08-26T19:06:50.699Z,4.70
2022-08-26T19:09:18.838Z,5.07
2022-08-26T19:11:50.372Z,5.25
2022-08-26T19:14:17.897Z,5.00
2022-08-26T19:16:47.858Z,5.13
2022-08-26T19:19:16.408Z,5.35
2022-08-26T19:21:47.052Z,4.93
2022-08-26T19:24:19.543Z,4.97
2022-08-26T19:26:57.998Z,5.00
2022-08-26T19:29:30.527Z,5.25
2022-08-26T19:32:02.569Z,5.15
2022-08-26T19:34:32.294Z,5.43
2022-08-26T19:37:01.429Z,4.57
2022-08-26T19:39:30.700Z,5.45
2022-08-26T19:41:57.728Z,5.47
2022-08-26T19:44:46.012Z,5.40
2022-08-26T19:47:13.408Z,5.00
2022-08-26T19:49:40.422Z,6.10
2022-08-26T19:52:07.743Z,5.78
2022-08-26T19:54:36.236Z,5.32
2022-08-26T19:57:04.596Z,5.63
2022-08-26T19:59:33.077Z,6.22
2022-08-26T20:02:01.399Z,5.13
2022-08-26T20:04:32.907Z,5.95
2022-08-26T20:07:01.640Z,5.75
2022-08-26T20:09:30.262Z,5.72
2022-08-26T20:11:57.334Z,5.93
2022-08-26T20:14:35.393Z,5.45
2022-08-26T20:17:05.446Z,4.63
2022-08-26T20:19:51.310Z,5.13
2022-08-26T20:22:19.427Z,5.30
2022-08-26T20:24:47.189Z,4.93
2022-08-26T20:27:15.387Z,5.50
2022-08-26T20:29:44.598Z,5.75
2022-08-26T20:32:13.720Z,6.30
2022-08-26T20:34:40.735Z,5.38
2022-08-26T20:37:08.473Z,5.40
2022-08-26T20:39:35.890Z,5.75
2022-08-26T20:42:03.258Z,6.22
2022-08-26T20:44:30.387Z,5.55
2022-08-26T20:46:59.814Z,5.80
2022-08-26T20:49:32.014Z,5.60
2022-08-26T20:52:04.374Z,5.47
2022-08-26T20:54:38.787Z,5.78
2022-08-26T20:57:11.228Z,5.72
2022-08-26T20:59:40.292Z,5.32
2022-08-26T21:02:07.739Z,5.45
2022-08-26T21:04:35.175Z,5.88
2022-08-26T21:07:02.134Z,5.43
2022-08-26T21:09:29.081Z,5.75
2022-08-26T21:12:02.397Z,5.82
2022-08-26T21:14:31.675Z,6.22
2022-08-26T21:17:00.994Z,5.93
2022-08-26T21:19:27.921Z,6.53
2022-08-26T21:21:55.112Z,5.93
2022-08-26T21:24:22.051Z,5.45
2022-08-26T21:26:51.048Z,6.10
2022-08-26T21:29:18.009Z,5.47
2022-08-26T21:31:49.632Z,5.68
2022-08-26T21:34:19.863Z,5.43
2022-08-26T21:36:47.845Z,5.05
2022-08-26T21:39:15.861Z,6.00
2022-08-26T21:41:46.012Z,4.65
2022-08-26T21:44:17.089Z,4.80
2022-08-26T21:46:49.780Z,5.38
2022-08-26T21:49:16.922Z,4.65
2022-08-26T21:51:49.176Z,5.05
2022-08-26T21:54:17.382Z,4.45
2022-08-26T21:56:48.391Z,4.40
2022-08-26T21:59:18.820Z,4.55
2022-08-26T22:01:46.289Z,4.60
2022-08-26T22:04:16.087Z,4.82
2022-08-26T22:06:50.563Z,4.03
2022-08-26T22:09:22.552Z,3.83
2022-08-26T22:11:50.218Z,4.03
2022-08-26T22:14:19.155Z,3.58
2022-08-26T22:16:50.287Z,3.55
2022-08-26T22:19:20.484Z,3.78
2022-08-26T22:21:52.884Z,3.35
2022-08-26T22:24:23.605Z,3.90
2022-08-26T22:26:51.821Z,3.42
2022-08-26T22:29:19.565Z,3.20
2022-08-26T22:31:49.022Z,3.33
2022-08-26T22:34:20.691Z,3.40
2022-08-26T22:36:51.874Z,3.38
2022-08-26T22:39:23.733Z,2.63
2022-08-26T22:41:54.313Z,2.75
2022-08-26T22:44:24.372Z,2.58
2022-08-26T22:46:55.969Z,2.70
2022-08-26T22:49:24.298Z,3.03
2022-08-26T22:51:56.029Z,2.63
2022-08-26T22:54:25.262Z,2.40
2022-08-26T22:56:56.863Z,2.22
2022-08-26T22:59:25.894Z,2.58
2022-08-26T23:01:54.888Z,2.40
2022-08-26T23:04:22.049Z,2.35
2022-08-26T23:06:51.430Z,2.35
2022-08-26T23:09:19.302Z,2.88
2022-08-26T23:11:48.370Z,2.58
2022-08-26T23:14:17.244Z,2.63
2022-08-26T23:16:44.404Z,2.35
2022-08-26T23:19:14.173Z,2.40
2022-08-26T23:21:41.564Z,2.58
2022-08-26T23:24:11.957Z,2.65
2022-08-26T23:26:40.758Z,2.27
2022-08-26T23:29:10.606Z,2.45
2022-08-26T23:31:40.195Z,2.13
2022-08-26T23:34:26.304Z,2.25
2022-08-26T23:36:59.158Z,2.00
2022-08-26T23:39:27.102Z,1.73
2022-08-26T23:41:57.956Z,1.65
2022-08-26T23:44:28.255Z,1.60
2022-08-26T23:46:57.578Z,1.45
2022-08-26T23:49:27.915Z,1.23
2022-08-26T23:52:13.456Z,1.27
2022-08-26T23:54:43.251Z,1.40
2022-08-26T23:57:11.129Z,1.20
2022-08-26T23:59:42.128Z,1.00
